createdAt,value
2018-06-15T00:00:20.072Z,99.90
2018-06-15T00:02:54.004Z,99.90
2018-06-15T00:05:22.356Z,99.90
2018-06-15T00:07:50.743Z,99.90
2018-06-15T00:10:19.264Z,99.90
2018-06-15T00:12:47.717Z,99.90
2018-06-15T00:15:16.131Z,99.90
2018-06-15T00:17:44.556Z,99.90
2018-06-15T00:20:12.901Z,99.90
2018-06-15T00:22:41.264Z,99.90
2018-06-15T00:25:09.696Z,99.90
2018-06-15T00:27:38.072Z,99.90
2018-06-15T00:30:07.581Z,99.90
2018-06-15T00:32:36.125Z,99.90
2018-06-15T00:35:04.518Z,99.90
2018-06-15T00:37:32.993Z,99.90
2018-06-15T00:40:01.422Z,99.90
2018-06-15T00:42:29.795Z,99.90
2018-06-15T00:44:58.160Z,99.90
2018-06-15T00:47:26.766Z,99.90
2018-06-15T00:49:55.128Z,99.90
2018-06-15T00:52:23.469Z,99.90
2018-06-15T00:54:51.884Z,99.90
2018-06-15T00:57:31.377Z,99.90
2018-06-15T00:59:59.796Z,99.90
2018-06-15T01:02:28.163Z,99.90
2018-06-15T01:04:56.560Z,99.90
2018-06-15T01:07:24.952Z,99.90
2018-06-15T01:09:53.387Z,99.90
2018-06-15T01:12:21.794Z,99.90
2018-06-15T01:14:50.338Z,99.90
2018-06-15T01:17:18.684Z,99.90
2018-06-15T01:19:47.072Z,99.90
2018-06-15T01:22:15.517Z,99.90
2018-06-15T01:24:43.908Z,99.90
2018-06-15T01:27:12.301Z,99.90
2018-06-15T01:29:40.740Z,99.90
2018-06-15T01:32:09.099Z,99.90
2018-06-15T01:34:37.460Z,99.90
2018-06-15T01:37:05.876Z,99.90
2018-06-15T01:39:34.220Z,99.90
2018-06-15T01:42:02.940Z,99.90
2018-06-15T01:46:59.452Z,99.90
2018-06-15T01:49:27.864Z,99.90
2018-06-15T01:51:56.255Z,99.90
2018-06-15T01:54:24.612Z,99.90
2018-06-15T01:56:53.013Z,99.90
2018-06-15T01:59:21.416Z,99.90
2018-06-15T02:01:49.804Z,99.90
2018-06-15T02:04:18.180Z,99.90
2018-06-15T02:06:46.628Z,99.90
2018-06-15T02:09:14.996Z,99.90
2018-06-15T02:11:43.441Z,99.90
2018-06-15T02:14:11.914Z,99.90
2018-06-15T02:16:40.316Z,99.90
2018-06-15T02:21:36.902Z,99.90
2018-06-15T02:26:33.571Z,99.90
2018-06-15T02:29:01.978Z,99.90
2018-06-15T02:31:30.393Z,99.90
2018-06-15T02:33:58.799Z,99.90
2018-06-15T02:36:27.352Z,99.90
2018-06-15T02:38:55.692Z,99.90
2018-06-15T02:41:24.072Z,99.90
2018-06-15T02:43:52.504Z,99.90
2018-06-15T02:46:20.864Z,99.90
2018-06-15T02:48:49.228Z,99.90
2018-06-15T02:51:17.632Z,99.90
2018-06-15T02:53:46.016Z,99.90
2018-06-15T02:56:14.482Z,99.90
2018-06-15T02:58:42.948Z,99.90
2018-06-15T03:01:11.392Z,99.90
2018-06-15T03:03:39.780Z,99.90
2018-06-15T03:06:08.241Z,99.90
2018-06-15T03:08:36.661Z,99.90
2018-06-15T03:11:05.045Z,99.90
2018-06-15T03:13:33.517Z,99.90
2018-06-15T03:16:01.900Z,99.90
2018-06-15T03:20:58.416Z,99.90
2018-06-15T03:23:26.804Z,99.90
2018-06-15T03:25:55.154Z,99.90
2018-06-15T03:28:23.688Z,99.90
2018-06-15T03:30:52.064Z,99.90
2018-06-15T03:33:20.589Z,99.90
2018-06-15T03:35:49.140Z,99.90
2018-06-15T03:38:17.555Z,99.90
2018-06-15T03:40:45.947Z,99.90
2018-06-15T03:43:14.444Z,99.90
2018-06-15T03:45:42.885Z,99.90
2018-06-15T03:48:11.277Z,99.90
2018-06-15T03:50:39.784Z,99.90
2018-06-15T03:53:08.181Z,99.90
2018-06-15T03:55:38.938Z,99.90
2018-06-15T03:58:07.398Z,99.90
2018-06-15T04:00:35.776Z,99.90
2018-06-15T04:03:04.293Z,99.90
2018-06-15T04:05:33.648Z,99.90
2018-06-15T04:08:02.032Z,99.90
2018-06-15T04:10:30.469Z,99.90
2018-06-15T04:12:59.097Z,99.90
2018-06-15T04:15:27.485Z,99.90
2018-06-15T04:18:06.285Z,99.90
2018-06-15T04:20:35.909Z,99.90
2018-06-15T04:23:04.266Z,99.90
2018-06-15T04:25:33.781Z,99.90
2018-06-15T04:28:02.139Z,99.90
2018-06-15T04:30:30.504Z,99.90
2018-06-15T04:32:59.044Z,99.90
2018-06-15T04:35:27.815Z,99.90
2018-06-15T04:37:56.223Z,99.90
2018-06-15T04:40:24.841Z,99.90
2018-06-15T04:42:53.232Z,99.90
2018-06-15T04:45:21.638Z,99.90
2018-06-15T04:47:50.629Z,99.90
2018-06-15T04:50:19.016Z,99.90
2018-06-15T04:52:47.377Z,99.90
2018-06-15T04:55:15.948Z,99.90
2018-06-15T04:57:44.294Z,99.70
2018-06-15T05:00:12.674Z,98.40
2018-06-15T05:02:41.389Z,96.70
2018-06-15T05:05:09.759Z,95.30
2018-06-15T05:07:38.168Z,93.80
2018-06-15T05:10:06.652Z,93.40
2018-06-15T05:12:35.482Z,92.40
2018-06-15T05:15:04.713Z,92.40
2018-06-15T05:17:34.882Z,91.20
2018-06-15T05:20:06.178Z,88.20
2018-06-15T05:22:35.605Z,85.80
2018-06-15T05:25:05.111Z,83.10
2018-06-15T05:27:34.704Z,82.70
2018-06-15T05:30:05.915Z,83.20
2018-06-15T05:32:35.435Z,83.90
2018-06-15T05:35:04.139Z,82.50
2018-06-15T05:37:32.684Z,81.70
2018-06-15T05:40:01.925Z,79.50
2018-06-15T05:42:31.185Z,77.60
2018-06-15T05:44:59.948Z,74.00
2018-06-15T05:49:52.425Z,69.90
2018-06-15T05:52:21.306Z,63.80
2018-06-15T05:54:50.198Z,59.30
2018-06-15T05:57:19.111Z,57.20
2018-06-15T05:59:48.436Z,57.00
2018-06-15T06:04:46.729Z,55.60
2018-06-15T06:07:15.320Z,55.90
2018-06-15T06:09:44.714Z,54.90
2018-06-15T06:12:14.622Z,52.00
2018-06-15T06:14:43.470Z,51.20
2018-06-15T06:17:12.418Z,50.60
2018-06-15T06:19:41.291Z,51.30
2018-06-15T06:22:09.652Z,49.90
2018-06-15T06:24:38.048Z,49.20
2018-06-15T06:27:06.770Z,47.50
2018-06-15T06:29:35.981Z,46.80
2018-06-15T06:32:05.398Z,46.50
2018-06-15T06:34:34.672Z,45.00
2018-06-15T06:37:03.299Z,45.60
2018-06-15T06:39:32.622Z,45.80
2018-06-15T06:42:04.556Z,45.40
2018-06-15T06:44:34.644Z,45.50
2018-06-15T06:47:05.082Z,45.00
2018-06-15T06:49:41.682Z,43.50
2018-06-15T06:52:10.983Z,42.60
2018-06-15T06:54:39.436Z,41.60
2018-06-15T06:57:07.883Z,42.20
2018-06-15T06:59:36.353Z,43.30
2018-06-15T07:02:04.673Z,43.30
2018-06-15T07:04:33.067Z,45.80
2018-06-15T07:07:01.628Z,45.10
2018-06-15T07:09:30.046Z,46.40
2018-06-15T07:11:58.396Z,46.40
2018-06-15T07:14:26.981Z,44.20
2018-06-15T07:16:55.352Z,44.10
2018-06-15T07:19:23.853Z,44.30
2018-06-15T07:21:52.540Z,44.80
2018-06-15T07:24:20.934Z,44.60
2018-06-15T07:26:49.410Z,43.80
2018-06-15T07:29:17.929Z,43.70
2018-06-15T07:31:46.549Z,45.40
2018-06-15T07:34:14.941Z,45.80
2018-06-15T07:36:43.580Z,45.90
2018-06-15T07:39:12.505Z,43.80
2018-06-15T07:41:41.044Z,45.20
2018-06-15T07:44:09.680Z,44.70
2018-06-15T07:46:38.341Z,46.10
2018-06-15T07:49:06.768Z,49.20
2018-06-15T07:51:35.198Z,51.30
2018-06-15T07:54:03.592Z,50.50
2018-06-15T07:56:31.965Z,46.60
2018-06-15T07:59:00.646Z,45.80
2018-06-15T08:01:29.016Z,46.00
2018-06-15T08:03:57.404Z,45.30
2018-06-15T08:06:27.377Z,42.90
2018-06-15T08:08:55.734Z,45.30
2018-06-15T08:11:24.099Z,44.10
2018-06-15T08:16:20.868Z,47.10
2018-06-15T08:18:49.228Z,47.90
2018-06-15T08:21:17.636Z,48.60
2018-06-15T08:23:46.030Z,46.70
2018-06-15T08:26:14.389Z,46.80
2018-06-15T08:28:42.933Z,46.60
2018-06-15T08:31:11.391Z,47.20
2018-06-15T08:33:39.793Z,48.80
2018-06-15T08:36:08.190Z,48.00
2018-06-15T08:38:36.550Z,49.60
2018-06-15T08:41:05.045Z,48.10
2018-06-15T08:43:33.533Z,48.50
2018-06-15T08:46:01.968Z,46.40
2018-06-15T08:48:30.345Z,47.50
2018-06-15T08:50:58.888Z,48.00
2018-06-15T08:53:27.464Z,47.80
2018-06-15T08:55:55.804Z,47.50
2018-06-15T08:58:24.236Z,48.20
2018-06-15T09:00:52.624Z,50.20
2018-06-15T09:03:21.031Z,50.90
2018-06-15T09:05:49.980Z,52.30
2018-06-15T09:08:19.358Z,50.10
2018-06-15T09:10:47.840Z,48.20
2018-06-15T09:13:16.380Z,46.00
2018-06-15T09:15:44.749Z,45.20
2018-06-15T09:18:13.168Z,44.60
2018-06-15T09:20:41.948Z,46.00
2018-06-15T09:23:10.406Z,44.00
2018-06-15T09:26:09.604Z,44.60
2018-06-15T09:28:38.133Z,46.70
2018-06-15T09:31:06.810Z,50.90
2018-06-15T09:33:35.348Z,51.80
2018-06-15T09:36:03.781Z,51.80
2018-06-15T09:38:32.248Z,49.30
2018-06-15T09:41:00.783Z,47.70
2018-06-15T09:43:29.294Z,47.20
2018-06-15T09:45:57.748Z,46.70
2018-06-15T09:48:26.420Z,46.50
2018-06-15T09:50:55.067Z,46.50
2018-06-15T09:53:23.757Z,47.60
2018-06-15T09:55:54.352Z,46.60
2018-06-15T09:58:22.908Z,46.30
2018-06-15T10:00:56.638Z,46.30
2018-06-15T10:03:26.169Z,47.50
2018-06-15T10:05:54.567Z,45.00
2018-06-15T10:08:23.214Z,45.10
2018-06-15T10:10:51.677Z,45.70
2018-06-15T10:13:20.066Z,46.20
2018-06-15T10:15:48.669Z,46.40
2018-06-15T10:18:17.067Z,47.20
2018-06-15T10:20:45.500Z,48.30
2018-06-15T10:23:14.135Z,50.20
2018-06-15T10:25:42.580Z,48.70
2018-06-15T10:28:10.958Z,49.60
2018-06-15T10:33:08.269Z,49.90
2018-06-15T10:35:36.648Z,48.10
2018-06-15T10:38:05.729Z,47.70
2018-06-15T10:40:34.328Z,49.80
2018-06-15T10:43:02.742Z,47.00
2018-06-15T10:45:31.481Z,48.20
2018-06-15T10:48:00.000Z,46.20
2018-06-15T10:50:28.360Z,46.70
2018-06-15T10:52:57.929Z,46.50
2018-06-15T10:55:26.460Z,48.40
2018-06-15T10:57:54.805Z,45.70
2018-06-15T11:00:23.457Z,44.60
2018-06-15T11:02:51.852Z,44.40
2018-06-15T11:05:20.228Z,47.20
2018-06-15T11:07:48.904Z,45.10
2018-06-15T11:10:17.333Z,42.80
2018-06-15T11:12:46.796Z,41.00
2018-06-15T11:15:15.468Z,41.70
2018-06-15T11:17:43.861Z,43.00
2018-06-15T11:20:12.422Z,45.00
2018-06-15T11:22:40.855Z,45.40
2018-06-15T11:25:09.268Z,45.10
2018-06-15T11:27:37.859Z,42.90
2018-06-15T11:30:06.553Z,42.00
2018-06-15T11:32:36.088Z,43.30
2018-06-15T11:35:04.600Z,45.40
2018-06-15T11:37:33.309Z,43.70
2018-06-15T11:40:01.677Z,43.50
2018-06-15T11:42:30.216Z,43.00
2018-06-15T11:44:58.760Z,41.20
2018-06-15T11:47:27.184Z,39.50
2018-06-15T11:49:55.812Z,42.50
2018-06-15T11:52:24.600Z,45.00
2018-06-15T11:54:53.328Z,43.70
2018-06-15T11:57:21.934Z,44.30
2018-06-15T12:02:18.587Z,43.00
2018-06-15T12:04:46.992Z,44.00
2018-06-15T12:07:15.584Z,43.80
2018-06-15T12:09:43.991Z,45.60
2018-06-15T12:12:12.348Z,42.40
2018-06-15T12:14:40.885Z,44.20
2018-06-15T12:17:09.376Z,42.50
2018-06-15T12:19:37.736Z,43.50
2018-06-15T12:22:06.381Z,43.70
2018-06-15T12:24:34.873Z,43.90
2018-06-15T12:27:03.440Z,42.70
2018-06-15T12:29:32.189Z,42.70
2018-06-15T12:32:00.717Z,42.10
2018-06-15T12:34:29.141Z,43.10
2018-06-15T12:36:57.577Z,42.10
2018-06-15T12:39:26.123Z,42.50
2018-06-15T12:41:55.144Z,41.50
2018-06-15T12:44:24.301Z,42.90
2018-06-15T12:46:52.824Z,45.20
2018-06-15T12:49:21.456Z,43.90
2018-06-15T12:51:50.092Z,43.00
2018-06-15T12:54:18.513Z,42.10
2018-06-15T12:56:46.923Z,42.60
2018-06-15T12:59:15.335Z,42.20
2018-06-15T13:01:43.886Z,42.10
2018-06-15T13:06:40.511Z,42.80
2018-06-15T13:11:37.877Z,41.80
2018-06-15T13:14:06.805Z,42.70
2018-06-15T13:16:35.464Z,44.00
2018-06-15T13:19:03.846Z,43.10
2018-06-15T13:21:32.283Z,42.30
2018-06-15T13:24:00.654Z,43.80
2018-06-15T13:26:29.042Z,43.90
2018-06-15T13:28:57.452Z,43.10
2018-06-15T13:31:25.812Z,43.80
2018-06-15T13:33:54.325Z,46.40
2018-06-15T13:36:22.820Z,43.70
2018-06-15T13:38:51.173Z,43.60
2018-06-15T13:41:19.552Z,43.30
2018-06-15T13:43:48.131Z,44.00
2018-06-15T13:46:16.504Z,46.20
2018-06-15T13:48:44.842Z,45.80
2018-06-15T13:51:13.285Z,45.20
2018-06-15T13:53:41.736Z,44.20
2018-06-15T13:56:10.148Z,45.00
2018-06-15T13:58:38.874Z,45.00
2018-06-15T14:01:08.153Z,45.00
2018-06-15T14:03:36.631Z,43.10
2018-06-15T14:06:05.272Z,42.80
2018-06-15T14:08:33.858Z,42.90
2018-06-15T14:11:02.289Z,41.80
2018-06-15T14:13:30.908Z,43.50
2018-06-15T14:15:59.422Z,42.50
2018-06-15T14:18:27.920Z,42.50
2018-06-15T14:20:56.429Z,42.50
2018-06-15T14:23:24.828Z,41.30
2018-06-15T14:25:53.216Z,41.10
2018-06-15T14:28:21.948Z,42.40
2018-06-15T14:30:50.938Z,43.10
2018-06-15T14:33:19.413Z,43.20
2018-06-15T14:35:47.912Z,41.50
2018-06-15T14:38:16.576Z,42.00
2018-06-15T14:40:44.997Z,40.10
2018-06-15T14:43:13.408Z,40.00
2018-06-15T14:45:41.859Z,41.60
2018-06-15T14:48:10.358Z,40.40
2018-06-15T14:50:38.957Z,42.80
2018-06-15T14:55:36.793Z,44.30
2018-06-15T14:58:05.431Z,42.90
2018-06-15T15:00:33.869Z,42.20
2018-06-15T15:03:02.333Z,44.90
2018-06-15T15:05:30.891Z,43.60
2018-06-15T15:07:59.409Z,42.20
2018-06-15T15:10:27.841Z,42.00
2018-06-15T15:12:56.530Z,43.70
2018-06-15T15:15:25.488Z,43.40
2018-06-15T15:17:54.246Z,42.40
2018-06-15T15:20:23.332Z,42.30
2018-06-15T15:22:51.726Z,42.10
2018-06-15T15:25:20.577Z,42.50
2018-06-15T15:27:49.206Z,42.50
2018-06-15T15:30:17.672Z,42.70
2018-06-15T15:35:14.377Z,42.60
2018-06-15T15:37:42.812Z,43.50
2018-06-15T15:40:11.397Z,43.10
2018-06-15T15:42:39.821Z,44.60
2018-06-15T15:45:08.264Z,45.10
2018-06-15T15:47:37.190Z,45.40
2018-06-15T15:50:06.373Z,45.00
2018-06-15T15:52:34.887Z,45.00
2018-06-15T15:55:03.301Z,42.60
2018-06-15T15:57:32.198Z,43.50
2018-06-15T16:00:00.701Z,43.50
2018-06-15T16:02:29.121Z,42.70
2018-06-15T16:04:57.735Z,43.10
2018-06-15T16:07:26.203Z,43.20
2018-06-15T16:09:54.728Z,42.90
2018-06-15T16:12:24.349Z,44.10
2018-06-15T16:14:52.837Z,44.30
2018-06-15T16:17:27.912Z,44.60
2018-06-15T16:19:56.386Z,43.60
2018-06-15T16:22:24.936Z,45.10
2018-06-15T16:24:53.928Z,44.50
2018-06-15T16:27:22.408Z,46.40
2018-06-15T16:29:51.070Z,45.40
2018-06-15T16:32:19.649Z,45.90
2018-06-15T16:34:48.089Z,47.40
2018-06-15T16:37:16.890Z,45.70
2018-06-15T16:39:45.477Z,46.00
2018-06-15T16:42:13.929Z,46.10
2018-06-15T16:44:42.354Z,45.70
2018-06-15T16:47:11.150Z,45.90
2018-06-15T16:49:39.568Z,45.60
2018-06-15T16:52:08.101Z,46.60
2018-06-15T16:54:37.657Z,44.40
2018-06-15T16:57:06.094Z,46.50
2018-06-15T16:59:34.538Z,45.20
2018-06-15T17:02:03.220Z,45.30
2018-06-15T17:04:31.565Z,44.70
2018-06-15T17:06:59.958Z,45.80
2018-06-15T17:09:28.524Z,46.00
2018-06-15T17:11:56.860Z,46.00
2018-06-15T17:14:25.235Z,46.10
2018-06-15T17:16:53.781Z,45.70
2018-06-15T17:19:22.214Z,45.20
2018-06-15T17:21:50.576Z,44.40
2018-06-15T17:24:19.169Z,44.70
2018-06-15T17:26:47.611Z,45.00
2018-06-15T17:31:44.387Z,45.10
2018-06-15T17:34:12.935Z,45.40
2018-06-15T17:36:44.796Z,45.00
2018-06-15T17:39:13.687Z,45.00
2018-06-15T17:41:42.966Z,44.20
2018-06-15T17:44:11.499Z,44.80
2018-06-15T17:46:39.915Z,46.50
2018-06-15T17:49:09.267Z,46.60
2018-06-15T17:51:37.745Z,47.20
2018-06-15T17:54:06.401Z,46.50
2018-06-15T17:56:34.808Z,46.40
2018-06-15T17:59:03.271Z,46.00
2018-06-15T18:01:31.764Z,45.00
2018-06-15T18:04:00.259Z,45.10
2018-06-15T18:06:28.973Z,45.80
2018-06-15T18:08:57.417Z,45.80
2018-06-15T18:11:25.885Z,45.70
2018-06-15T18:13:54.932Z,46.30
2018-06-15T18:16:23.337Z,46.20
2018-06-15T18:18:51.784Z,47.00
2018-06-15T18:21:20.545Z,47.00
2018-06-15T18:23:49.224Z,46.00
2018-06-15T18:26:17.826Z,46.40
2018-06-15T18:28:46.377Z,46.80
2018-06-15T18:31:14.829Z,46.60
2018-06-15T18:33:43.308Z,46.90
2018-06-15T18:36:12.018Z,46.80
2018-06-15T18:38:40.494Z,48.10
2018-06-15T18:41:09.088Z,47.90
2018-06-15T18:43:38.295Z,48.30
2018-06-15T18:50:17.184Z,48.20
2018-06-15T18:52:45.705Z,47.70
2018-06-15T18:55:14.448Z,47.60
2018-06-15T18:57:42.911Z,48.20
2018-06-15T19:00:11.567Z,47.60
2018-06-15T19:02:40.057Z,47.20
2018-06-15T19:05:10.230Z,47.50
2018-06-15T19:07:38.924Z,47.40
2018-06-15T19:10:08.383Z,48.40
2018-06-15T19:12:37.144Z,48.80
2018-06-15T19:15:05.619Z,49.20
2018-06-15T19:17:34.005Z,49.70
2018-06-15T19:20:02.921Z,49.90
2018-06-15T19:22:31.605Z,50.10
2018-06-15T19:25:00.000Z,50.30
2018-06-15T19:27:28.576Z,50.50
2018-06-15T19:29:58.189Z,50.70
2018-06-15T19:32:26.720Z,50.60
2018-06-15T19:34:55.721Z,50.80
2018-06-15T19:37:24.656Z,51.10
2018-06-15T19:39:53.356Z,51.10
2018-06-15T19:42:22.294Z,52.70
2018-06-15T19:44:51.136Z,54.00
2018-06-15T19:47:19.542Z,55.50
2018-06-15T19:49:48.209Z,56.30
2018-06-15T19:52:16.685Z,57.10
2018-06-15T19:54:45.141Z,57.70
2018-06-15T19:57:13.702Z,58.20
2018-06-15T19:59:42.286Z,58.70
2018-06-15T20:02:17.300Z,59.10
2018-06-15T20:04:45.850Z,59.50
2018-06-15T20:07:14.372Z,59.90
2018-06-15T20:09:42.928Z,60.20
2018-06-15T20:12:11.541Z,60.50
2018-06-15T20:14:40.098Z,60.80
2018-06-15T20:17:08.605Z,60.90
2018-06-15T20:19:39.025Z,61.40
2018-06-15T20:22:08.625Z,61.80
2018-06-15T20:24:39.368Z,62.10
2018-06-15T20:27:10.499Z,62.50
2018-06-15T20:29:43.942Z,62.90
2018-06-15T20:32:16.982Z,63.60
2018-06-15T20:34:45.551Z,64.30
2018-06-15T20:37:14.081Z,65.40
2018-06-15T20:39:42.644Z,65.40
2018-06-15T20:42:11.080Z,66.20
2018-06-15T20:44:39.509Z,66.60
2018-06-15T20:47:08.703Z,66.90
2018-06-15T20:49:37.384Z,67.30
2018-06-15T20:52:06.130Z,67.30
2018-06-15T20:54:35.759Z,68.30
2018-06-15T20:57:04.452Z,67.50
2018-06-15T20:59:36.321Z,66.80
2018-06-15T21:02:05.297Z,66.30
2018-06-15T21:04:34.176Z,66.50
2018-06-15T21:07:02.821Z,66.70
2018-06-15T21:09:31.588Z,67.70
2018-06-15T21:12:02.657Z,68.10
2018-06-15T21:14:31.259Z,67.80
2018-06-15T21:17:00.457Z,68.00
2018-06-15T21:19:29.064Z,68.00
2018-06-15T21:21:57.527Z,67.90
2018-06-15T21:24:27.085Z,67.80
2018-06-15T21:26:55.612Z,67.90
2018-06-15T21:29:24.000Z,67.70
2018-06-15T21:31:52.456Z,68.00
2018-06-15T21:34:21.174Z,67.90
2018-06-15T21:36:49.990Z,67.80
2018-06-15T21:39:18.672Z,67.60
2018-06-15T21:41:47.113Z,67.80
2018-06-15T21:44:15.634Z,67.60
2018-06-15T21:46:44.387Z,67.60
2018-06-15T21:49:12.996Z,67.60
2018-06-15T21:51:41.419Z,67.20
2018-06-15T21:54:09.860Z,66.40
2018-06-15T21:56:40.291Z,66.70
2018-06-15T21:59:08.710Z,66.40
2018-06-15T22:01:37.157Z,66.00
2018-06-15T22:04:05.760Z,66.50
2018-06-15T22:06:34.309Z,65.90
2018-06-15T22:09:02.792Z,66.20
2018-06-15T22:11:31.548Z,66.10
2018-06-15T22:13:59.949Z,66.00
2018-06-15T22:16:32.740Z,65.90
2018-06-15T22:19:01.552Z,65.70
2018-06-15T22:21:29.948Z,66.20
2018-06-15T22:23:58.608Z,66.30
2018-06-15T22:26:26.969Z,66.70
2018-06-15T22:28:55.353Z,66.60
2018-06-15T22:31:23.909Z,66.80
2018-06-15T22:33:52.290Z,67.30
2018-06-15T22:36:20.700Z,67.20
2018-06-15T22:38:49.116Z,67.80
2018-06-15T22:41:17.476Z,67.90
2018-06-15T22:43:45.954Z,68.30
2018-06-15T22:46:14.421Z,68.60
2018-06-15T22:48:42.813Z,69.20
2018-06-15T22:51:11.194Z,69.50
2018-06-15T22:53:39.644Z,69.70
2018-06-15T22:56:08.066Z,70.00
2018-06-15T22:58:36.957Z,70.80
2018-06-15T23:01:05.565Z,71.10
2018-06-15T23:03:33.962Z,71.20
2018-06-15T23:06:02.332Z,71.50
2018-06-15T23:08:30.915Z,72.20
2018-06-15T23:10:59.274Z,72.40
2018-06-15T23:13:27.633Z,73.20
2018-06-15T23:15:56.257Z,73.60
2018-06-15T23:18:24.668Z,73.60
2018-06-15T23:20:56.133Z,74.10
2018-06-15T23:23:24.598Z,74.50
2018-06-15T23:25:52.981Z,74.60
2018-06-15T23:28:21.484Z,75.10
2018-06-15T23:30:50.099Z,75.30
2018-06-15T23:33:18.465Z,75.30
2018-06-15T23:35:46.869Z,75.90
2018-06-15T23:38:16.324Z,76.50
2018-06-15T23:43:12.764Z,77.40
2018-06-15T23:45:41.347Z,78.10
2018-06-15T23:48:09.761Z,78.90
2018-06-15T23:50:38.136Z,79.70
2018-06-15T23:53:06.553Z,80.70
2018-06-15T23:55:34.963Z,80.90
